Terminal Aerodrome Forecast
Issued by NWS Sterling, VA

Current Version | Previous Version | Graphics & Text | Print | Product List | Glossary On
Versions: 1 2 3 4 5 6 7 8 9 10 11 12 13 14 15 16 17 18 19 20 21 22 23 24 25 26 27
000
FTUS41 KLWX 181456 AAA
TAFIAD
TAF AMD
KIAD 181456Z 1815/1918 30011G20KT P6SM FEW150
     FM182200 31007KT P6SM SKC
     FM190300 VRB03KT P6SM SKC
     FM191700 24007KT P6SM FEW200=

USA.gov is the U.S. government's official web portal to all federal, state and local government web resources and services.